sensor_id;sensor_type;location;lat;lon;timestamp;pressure;altitude;pressure_sealevel;temperature
70533;BMP180;58088;51.186;17.130;2022-12-17T00:01:54;100465.80;;;-0.70
70533;BMP180;58088;51.186;17.130;2022-12-17T00:04:39;100474.60;;;-0.70
70533;BMP180;58088;51.186;17.130;2022-12-17T00:07:24;100479.20;;;-0.70
70533;BMP180;58088;51.186;17.130;2022-12-17T00:10:09;100490.40;;;-0.72
70533;BMP180;58088;51.186;17.130;2022-12-17T00:12:55;100493.60;;;-0.70
70533;BMP180;58088;51.186;17.130;2022-12-17T00:15:40;100492.00;;;-0.70
70533;BMP180;58088;51.186;17.130;2022-12-17T00:18:25;100491.80;;;-0.70
70533;BMP180;58088;51.186;17.130;2022-12-17T00:21:09;100489.00;;;-0.70
70533;BMP180;58088;51.186;17.130;2022-12-17T00:23:55;100488.60;;;-0.80
70533;BMP180;58088;51.186;17.130;2022-12-17T00:26:43;100493.20;;;-0.80
70533;BMP180;58088;51.186;17.130;2022-12-17T00:29:28;100497.00;;;-0.74
70533;BMP180;58088;51.186;17.130;2022-12-17T00:32:12;100503.40;;;-0.70
70533;BMP180;58088;51.186;17.130;2022-12-17T00:34:57;100506.00;;;-0.60
70533;BMP180;58088;51.186;17.130;2022-12-17T00:37:45;100512.00;;;-0.60
70533;BMP180;58088;51.186;17.130;2022-12-17T00:40:30;100516.20;;;-0.60
70533;BMP180;58088;51.186;17.130;2022-12-17T00:43:15;100532.40;;;-0.60
70533;BMP180;58088;51.186;17.130;2022-12-17T00:46:10;100530.00;;;-0.60
70533;BMP180;58088;51.186;17.130;2022-12-17T00:48:55;100520.20;;;-0.60
70533;BMP180;58088;51.186;17.130;2022-12-17T00:51:40;100526.20;;;-0.60
70533;BMP180;58088;51.186;17.130;2022-12-17T00:54:25;100521.60;;;-0.60
70533;BMP180;58088;51.186;17.130;2022-12-17T00:57:10;100527.60;;;-0.70
70533;BMP180;58088;51.186;17.130;2022-12-17T00:59:56;100523.00;;;-0.70
70533;BMP180;58088;51.186;17.130;2022-12-17T01:02:40;100534.40;;;-0.70
70533;BMP180;58088;51.186;17.130;2022-12-17T01:05:25;100526.40;;;-0.70
70533;BMP180;58088;51.186;17.130;2022-12-17T01:08:13;100523.80;;;-0.70
70533;BMP180;58088;51.186;17.130;2022-12-17T01:11:05;100519.40;;;-0.78
70533;BMP180;58088;51.186;17.130;2022-12-17T01:13:52;100520.00;;;-0.76
70533;BMP180;58088;51.186;17.130;2022-12-17T01:16:37;100523.80;;;-0.70
70533;BMP180;58088;51.186;17.130;2022-12-17T01:19:22;100517.80;;;-0.80
70533;BMP180;58088;51.186;17.130;2022-12-17T01:22:07;100518.40;;;-0.80
70533;BMP180;58088;51.186;17.130;2022-12-17T01:24:51;100522.40;;;-0.80
70533;BMP180;58088;51.186;17.130;2022-12-17T01:27:36;100524.00;;;-0.86
70533;BMP180;58088;51.186;17.130;2022-12-17T01:30:21;100524.80;;;-0.90
70533;BMP180;58088;51.186;17.130;2022-12-17T01:33:08;100531.60;;;-0.90
70533;BMP180;58088;51.186;17.130;2022-12-17T01:35:55;100537.80;;;-0.90
70533;BMP180;58088;51.186;17.130;2022-12-17T01:38:40;100535.40;;;-0.86
70533;BMP180;58088;51.186;17.130;2022-12-17T01:41:42;100539.00;;;-0.80
70533;BMP180;58088;51.186;17.130;2022-12-17T01:48:02;100541.60;;;-0.80
70533;BMP180;58088;51.186;17.130;2022-12-17T01:50:53;100544.60;;;-0.78
70533;BMP180;58088;51.186;17.130;2022-12-17T01:53:46;100545.60;;;-0.76
70533;BMP180;58088;51.186;17.130;2022-12-17T01:56:34;100544.40;;;-0.80
70533;BMP180;58088;51.186;17.130;2022-12-17T01:59:55;100551.40;;;-0.74
70533;BMP180;58088;51.186;17.130;2022-12-17T02:02:42;100551.60;;;-0.70
70533;BMP180;58088;51.186;17.130;2022-12-17T02:06:09;100555.40;;;-0.70
70533;BMP180;58088;51.186;17.130;2022-12-17T02:09:45;100562.40;;;-0.62
70533;BMP180;58088;51.186;17.130;2022-12-17T02:12:49;100557.00;;;-0.64
70533;BMP180;58088;51.186;17.130;2022-12-17T02:15:46;100557.80;;;-0.64
70533;BMP180;58088;51.186;17.130;2022-12-17T02:18:43;100561.60;;;-0.60
70533;BMP180;58088;51.186;17.130;2022-12-17T02:21:32;100560.20;;;-0.60
70533;BMP180;58088;51.186;17.130;2022-12-17T02:27:23;100562.00;;;-0.60
70533;BMP180;58088;51.186;17.130;2022-12-17T02:30:09;100570.20;;;-0.60
70533;BMP180;58088;51.186;17.130;2022-12-17T02:32:55;100569.40;;;-0.50
70533;BMP180;58088;51.186;17.130;2022-12-17T02:35:48;100570.40;;;-0.50
70533;BMP180;58088;51.186;17.130;2022-12-17T02:38:34;100571.80;;;-0.50
70533;BMP180;58088;51.186;17.130;2022-12-17T02:41:42;100565.00;;;-0.50
70533;BMP180;58088;51.186;17.130;2022-12-17T02:44:31;100563.40;;;-0.50
70533;BMP180;58088;51.186;17.130;2022-12-17T02:47:18;100565.40;;;-0.50
70533;BMP180;58088;51.186;17.130;2022-12-17T02:50:05;100570.40;;;-0.50
70533;BMP180;58088;51.186;17.130;2022-12-17T02:52:52;100570.40;;;-0.50
70533;BMP180;58088;51.186;17.130;2022-12-17T02:55:38;100569.40;;;-0.50
70533;BMP180;58088;51.186;17.130;2022-12-17T02:58:23;100569.40;;;-0.54
70533;BMP180;58088;51.186;17.130;2022-12-17T03:01:08;100574.20;;;-0.50
70533;BMP180;58088;51.186;17.130;2022-12-17T03:03:53;100584.60;;;-0.56
70533;BMP180;58088;51.186;17.130;2022-12-17T03:06:38;100590.80;;;-0.50
70533;BMP180;58088;51.186;17.130;2022-12-17T03:09:23;100595.00;;;-0.50
70533;BMP180;58088;51.186;17.130;2022-12-17T03:12:08;100600.00;;;-0.46
70533;BMP180;58088;51.186;17.130;2022-12-17T03:14:53;100595.80;;;-0.40
70533;BMP180;58088;51.186;17.130;2022-12-17T03:17:39;100589.00;;;-0.40
70533;BMP180;58088;51.186;17.130;2022-12-17T03:20:24;100588.20;;;-0.30
70533;BMP180;58088;51.186;17.130;2022-12-17T03:23:10;100583.20;;;-0.32
70533;BMP180;58088;51.186;17.130;2022-12-17T03:26:01;100590.60;;;-0.40
70533;BMP180;58088;51.186;17.130;2022-12-17T03:28:47;100586.40;;;-0.50
70533;BMP180;58088;51.186;17.130;2022-12-17T03:31:32;100587.60;;;-0.50
70533;BMP180;58088;51.186;17.130;2022-12-17T03:34:17;100587.00;;;-0.60
70533;BMP180;58088;51.186;17.130;2022-12-17T03:37:01;100590.00;;;-0.60
70533;BMP180;58088;51.186;17.130;2022-12-17T03:39:46;100580.60;;;-0.60
70533;BMP180;58088;51.186;17.130;2022-12-17T03:42:32;100588.20;;;-0.60
70533;BMP180;58088;51.186;17.130;2022-12-17T03:45:17;100587.20;;;-0.60
70533;BMP180;58088;51.186;17.130;2022-12-17T03:48:09;100600.40;;;-0.60
70533;BMP180;58088;51.186;17.130;2022-12-17T03:50:55;100615.40;;;-0.60
70533;BMP180;58088;51.186;17.130;2022-12-17T03:53:41;100616.00;;;-0.64
70533;BMP180;58088;51.186;17.130;2022-12-17T03:56:27;100632.20;;;-0.70
70533;BMP180;58088;51.186;17.130;2022-12-17T03:59:13;100633.00;;;-0.80
70533;BMP180;58088;51.186;17.130;2022-12-17T04:01:58;100632.00;;;-0.80
70533;BMP180;58088;51.186;17.130;2022-12-17T04:04:43;100642.20;;;-0.90
70533;BMP180;58088;51.186;17.130;2022-12-17T04:07:28;100645.00;;;-0.80
70533;BMP180;58088;51.186;17.130;2022-12-17T04:10:12;100645.40;;;-0.80
70533;BMP180;58088;51.186;17.130;2022-12-17T04:12:58;100649.80;;;-0.80
70533;BMP180;58088;51.186;17.130;2022-12-17T04:15:42;100653.40;;;-0.70
70533;BMP180;58088;51.186;17.130;2022-12-17T04:18:27;100657.20;;;-0.70
70533;BMP180;58088;51.186;17.130;2022-12-17T04:21:12;100656.40;;;-0.70
70533;BMP180;58088;51.186;17.130;2022-12-17T04:23:57;100660.20;;;-0.70
70533;BMP180;58088;51.186;17.130;2022-12-17T04:26:42;100665.80;;;-0.80
70533;BMP180;58088;51.186;17.130;2022-12-17T04:29:27;100660.80;;;-0.80
70533;BMP180;58088;51.186;17.130;2022-12-17T04:32:11;100662.40;;;-0.80
70533;BMP180;58088;51.186;17.130;2022-12-17T04:34:56;100674.80;;;-0.80
70533;BMP180;58088;51.186;17.130;2022-12-17T04:37:41;100674.60;;;-0.80
70533;BMP180;58088;51.186;17.130;2022-12-17T04:40:26;100681.00;;;-0.80
70533;BMP180;58088;51.186;17.130;2022-12-17T04:43:28;100685.80;;;-0.90
70533;BMP180;58088;51.186;17.130;2022-12-17T04:46:12;100678.80;;;-0.90
70533;BMP180;58088;51.186;17.130;2022-12-17T04:48:58;100677.80;;;-0.90
70533;BMP180;58088;51.186;17.130;2022-12-17T04:51:42;100682.40;;;-0.90
70533;BMP180;58088;51.186;17.130;2022-12-17T04:54:27;100693.80;;;-0.92
70533;BMP180;58088;51.186;17.130;2022-12-17T04:57:11;100699.40;;;-1.00
70533;BMP180;58088;51.186;17.130;2022-12-17T04:59:56;100699.80;;;-1.00
70533;BMP180;58088;51.186;17.130;2022-12-17T05:02:41;100698.40;;;-1.08
70533;BMP180;58088;51.186;17.130;2022-12-17T05:05:26;100697.20;;;-1.10
70533;BMP180;58088;51.186;17.130;2022-12-17T05:08:11;100690.00;;;-1.10
70533;BMP180;58088;51.186;17.130;2022-12-17T05:11:01;100694.60;;;-1.10
70533;BMP180;58088;51.186;17.130;2022-12-17T05:13:46;100695.20;;;-1.10
70533;BMP180;58088;51.186;17.130;2022-12-17T05:16:31;100690.20;;;-1.10
70533;BMP180;58088;51.186;17.130;2022-12-17T05:19:16;100702.60;;;-1.10
70533;BMP180;58088;51.186;17.130;2022-12-17T05:22:01;100710.00;;;-1.10
70533;BMP180;58088;51.186;17.130;2022-12-17T05:24:45;100717.00;;;-1.10
70533;BMP180;58088;51.186;17.130;2022-12-17T05:27:30;100722.20;;;-1.20
70533;BMP180;58088;51.186;17.130;2022-12-17T05:30:15;100725.00;;;-1.20
70533;BMP180;58088;51.186;17.130;2022-12-17T05:33:02;100725.00;;;-1.20
70533;BMP180;58088;51.186;17.130;2022-12-17T05:35:48;100714.00;;;-1.20
70533;BMP180;58088;51.186;17.130;2022-12-17T05:38:33;100720.00;;;-1.20
70533;BMP180;58088;51.186;17.130;2022-12-17T05:41:17;100717.00;;;-1.14
70533;BMP180;58088;51.186;17.130;2022-12-17T05:44:03;100719.40;;;-1.10
70533;BMP180;58088;51.186;17.130;2022-12-17T05:46:48;100734.20;;;-1.10
70533;BMP180;58088;51.186;17.130;2022-12-17T05:49:33;100735.40;;;-1.10
70533;BMP180;58088;51.186;17.130;2022-12-17T05:52:18;100740.00;;;-1.10
70533;BMP180;58088;51.186;17.130;2022-12-17T05:55:04;100746.00;;;-1.10
70533;BMP180;58088;51.186;17.130;2022-12-17T05:57:48;100753.20;;;-1.10
70533;BMP180;58088;51.186;17.130;2022-12-17T06:00:33;100753.40;;;-1.10
70533;BMP180;58088;51.186;17.130;2022-12-17T06:03:17;100753.40;;;-1.06
70533;BMP180;58088;51.186;17.130;2022-12-17T06:06:03;100758.00;;;-1.00
70533;BMP180;58088;51.186;17.130;2022-12-17T06:08:47;100755.60;;;-1.10
70533;BMP180;58088;51.186;17.130;2022-12-17T06:11:32;100764.00;;;-1.02
70533;BMP180;58088;51.186;17.130;2022-12-17T06:14:17;100760.80;;;-1.00
70533;BMP180;58088;51.186;17.130;2022-12-17T06:17:02;100760.40;;;-1.10
70533;BMP180;58088;51.186;17.130;2022-12-17T06:19:47;100766.20;;;-1.10
70533;BMP180;58088;51.186;17.130;2022-12-17T06:22:31;100768.80;;;-1.20
70533;BMP180;58088;51.186;17.130;2022-12-17T06:25:16;100785.20;;;-1.20
70533;BMP180;58088;51.186;17.130;2022-12-17T06:28:02;100780.80;;;-1.28
70533;BMP180;58088;51.186;17.130;2022-12-17T06:30:53;100789.40;;;-1.20
70533;BMP180;58088;51.186;17.130;2022-12-17T06:33:39;100790.20;;;-1.20
70533;BMP180;58088;51.186;17.130;2022-12-17T06:36:24;100789.60;;;-1.30
70533;BMP180;58088;51.186;17.130;2022-12-17T06:39:09;100802.40;;;-1.20
70533;BMP180;58088;51.186;17.130;2022-12-17T06:41:54;100799.80;;;-1.30
70533;BMP180;58088;51.186;17.130;2022-12-17T06:44:39;100808.80;;;-1.24
70533;BMP180;58088;51.186;17.130;2022-12-17T06:47:25;100816.00;;;-1.20
70533;BMP180;58088;51.186;17.130;2022-12-17T06:50:09;100810.60;;;-1.20
70533;BMP180;58088;51.186;17.130;2022-12-17T06:53:03;100815.00;;;-1.20
70533;BMP180;58088;51.186;17.130;2022-12-17T06:55:49;100818.80;;;-1.28
70533;BMP180;58088;51.186;17.130;2022-12-17T06:58:35;100820.20;;;-1.30
70533;BMP180;58088;51.186;17.130;2022-12-17T07:01:20;100825.80;;;-1.30
70533;BMP180;58088;51.186;17.130;2022-12-17T07:04:05;100832.40;;;-1.20
70533;BMP180;58088;51.186;17.130;2022-12-17T07:06:50;100833.40;;;-1.20
70533;BMP180;58088;51.186;17.130;2022-12-17T07:09:34;100837.40;;;-1.12
70533;BMP180;58088;51.186;17.130;2022-12-17T07:12:19;100835.60;;;-1.14
70533;BMP180;58088;51.186;17.130;2022-12-17T07:15:05;100840.80;;;-1.20
70533;BMP180;58088;51.186;17.130;2022-12-17T07:18:03;100839.80;;;-1.18
70533;BMP180;58088;51.186;17.130;2022-12-17T07:20:52;100857.00;;;-1.10
70533;BMP180;58088;51.186;17.130;2022-12-17T07:23:40;100856.80;;;-1.10
70533;BMP180;58088;51.186;17.130;2022-12-17T07:26:25;100868.40;;;-1.10
70533;BMP180;58088;51.186;17.130;2022-12-17T07:29:09;100879.00;;;-1.06
70533;BMP180;58088;51.186;17.130;2022-12-17T07:31:55;100881.20;;;-1.10
70533;BMP180;58088;51.186;17.130;2022-12-17T07:34:40;100880.60;;;-1.10
70533;BMP180;58088;51.186;17.130;2022-12-17T07:37:24;100884.80;;;-1.10
70533;BMP180;58088;51.186;17.130;2022-12-17T07:40:10;100883.20;;;-1.10
70533;BMP180;58088;51.186;17.130;2022-12-17T07:42:55;100891.60;;;-1.10
70533;BMP180;58088;51.186;17.130;2022-12-17T07:45:39;100898.40;;;-1.02
70533;BMP180;58088;51.186;17.130;2022-12-17T07:48:25;100903.60;;;-1.00
70533;BMP180;58088;51.186;17.130;2022-12-17T07:51:09;100903.20;;;-0.90
70533;BMP180;58088;51.186;17.130;2022-12-17T07:53:55;100905.00;;;-0.90
70533;BMP180;58088;51.186;17.130;2022-12-17T07:56:40;100910.60;;;-0.90
70533;BMP180;58088;51.186;17.130;2022-12-17T07:59:24;100915.40;;;-0.90
70533;BMP180;58088;51.186;17.130;2022-12-17T08:02:10;100921.20;;;-0.80
70533;BMP180;58088;51.186;17.130;2022-12-17T08:04:55;100929.20;;;-0.80
70533;BMP180;58088;51.186;17.130;2022-12-17T08:07:40;100927.60;;;-0.72
70533;BMP180;58088;51.186;17.130;2022-12-17T08:10:25;100931.60;;;-0.70
70533;BMP180;58088;51.186;17.130;2022-12-17T08:13:10;100930.80;;;-0.70
70533;BMP180;58088;51.186;17.130;2022-12-17T08:15:55;100934.40;;;-0.70
70533;BMP180;58088;51.186;17.130;2022-12-17T08:18:41;100934.40;;;-0.70
70533;BMP180;58088;51.186;17.130;2022-12-17T08:21:26;100936.00;;;-0.70
70533;BMP180;58088;51.186;17.130;2022-12-17T08:24:10;100941.20;;;-0.60
70533;BMP180;58088;51.186;17.130;2022-12-17T08:26:56;100954.00;;;-0.60
70533;BMP180;58088;51.186;17.130;2022-12-17T08:29:41;100947.40;;;-0.50
70533;BMP180;58088;51.186;17.130;2022-12-17T08:32:26;100949.60;;;-0.50
70533;BMP180;58088;51.186;17.130;2022-12-17T08:35:11;100953.20;;;-0.56
70533;BMP180;58088;51.186;17.130;2022-12-17T08:38:04;100954.20;;;-0.50
70533;BMP180;58088;51.186;17.130;2022-12-17T08:40:50;100952.20;;;-0.40
70533;BMP180;58088;51.186;17.130;2022-12-17T08:43:35;100951.20;;;-0.30
70533;BMP180;58088;51.186;17.130;2022-12-17T08:46:20;100958.00;;;-0.30
70533;BMP180;58088;51.186;17.130;2022-12-17T08:49:06;100964.40;;;-0.22
70533;BMP180;58088;51.186;17.130;2022-12-17T08:51:51;100964.20;;;-0.20
70533;BMP180;58088;51.186;17.130;2022-12-17T08:54:36;100970.60;;;-0.20
70533;BMP180;58088;51.186;17.130;2022-12-17T08:57:21;100960.60;;;-0.20
70533;BMP180;58088;51.186;17.130;2022-12-17T09:00:07;100967.40;;;-0.10
70533;BMP180;58088;51.186;17.130;2022-12-17T09:03:00;100975.20;;;-0.10
70533;BMP180;58088;51.186;17.130;2022-12-17T09:05:46;100983.20;;;-0.10
70533;BMP180;58088;51.186;17.130;2022-12-17T09:08:32;100972.80;;;-0.10
70533;BMP180;58088;51.186;17.130;2022-12-17T09:11:17;100977.80;;;-0.10
70533;BMP180;58088;51.186;17.130;2022-12-17T09:14:02;100984.00;;;-0.10
70533;BMP180;58088;51.186;17.130;2022-12-17T09:16:47;100982.80;;;-0.02
70533;BMP180;58088;51.186;17.130;2022-12-17T09:19:32;100991.40;;;-0.02
70533;BMP180;58088;51.186;17.130;2022-12-17T09:22:16;100979.40;;;0.00
70533;BMP180;58088;51.186;17.130;2022-12-17T09:25:02;100982.60;;;0.00
70533;BMP180;58088;51.186;17.130;2022-12-17T09:27:47;100981.00;;;0.00
70533;BMP180;58088;51.186;17.130;2022-12-17T09:30:32;100982.00;;;0.00
70533;BMP180;58088;51.186;17.130;2022-12-17T09:33:18;100982.80;;;0.02
70533;BMP180;58088;51.186;17.130;2022-12-17T09:36:07;100986.60;;;0.08
70533;BMP180;58088;51.186;17.130;2022-12-17T09:38:51;100984.00;;;0.10
70533;BMP180;58088;51.186;17.130;2022-12-17T09:45:15;100983.80;;;0.00
70533;BMP180;58088;51.186;17.130;2022-12-17T09:48:38;100991.00;;;0.00
70533;BMP180;58088;51.186;17.130;2022-12-17T09:51:27;100987.40;;;0.10
70533;BMP180;58088;51.186;17.130;2022-12-17T09:54:40;100996.60;;;0.06
70533;BMP180;58088;51.186;17.130;2022-12-17T09:57:34;101000.80;;;0.10
70533;BMP180;58088;51.186;17.130;2022-12-17T10:00:25;100993.20;;;0.10
70533;BMP180;58088;51.186;17.130;2022-12-17T10:03:19;100998.00;;;0.10
70533;BMP180;58088;51.186;17.130;2022-12-17T10:06:16;101006.00;;;0.10
70533;BMP180;58088;51.186;17.130;2022-12-17T10:09:11;101000.00;;;0.20
70533;BMP180;58088;51.186;17.130;2022-12-17T10:12:11;101012.40;;;0.24
70533;BMP180;58088;51.186;17.130;2022-12-17T10:14:56;100995.80;;;0.30
70533;BMP180;58088;51.186;17.130;2022-12-17T10:17:41;101002.00;;;0.20
70533;BMP180;58088;51.186;17.130;2022-12-17T10:23:31;101007.60;;;0.20
70533;BMP180;58088;51.186;17.130;2022-12-17T10:26:21;101014.80;;;0.10
70533;BMP180;58088;51.186;17.130;2022-12-17T10:29:17;101019.40;;;0.06
70533;BMP180;58088;51.186;17.130;2022-12-17T10:32:20;101027.00;;;0.00
70533;BMP180;58088;51.186;17.130;2022-12-17T10:35:36;101035.80;;;-0.20
70533;BMP180;58088;51.186;17.130;2022-12-17T10:38:29;101047.80;;;-0.30
70533;BMP180;58088;51.186;17.130;2022-12-17T10:41:29;101054.20;;;-0.30
70533;BMP180;58088;51.186;17.130;2022-12-17T10:44:34;101061.80;;;-0.30
70533;BMP180;58088;51.186;17.130;2022-12-17T10:47:23;101065.80;;;-0.30
70533;BMP180;58088;51.186;17.130;2022-12-17T10:50:17;101069.60;;;-0.30
70533;BMP180;58088;51.186;17.130;2022-12-17T10:53:14;101065.40;;;-0.30
70533;BMP180;58088;51.186;17.130;2022-12-17T10:56:00;101069.80;;;-0.40
70533;BMP180;58088;51.186;17.130;2022-12-17T10:58:49;101070.80;;;-0.40
70533;BMP180;58088;51.186;17.130;2022-12-17T11:01:37;101067.60;;;-0.40
70533;BMP180;58088;51.186;17.130;2022-12-17T11:04:32;101073.20;;;-0.38
70533;BMP180;58088;51.186;17.130;2022-12-17T11:07:32;101074.00;;;-0.30
70533;BMP180;58088;51.186;17.130;2022-12-17T11:10:22;101067.00;;;-0.20
70533;BMP180;58088;51.186;17.130;2022-12-17T11:13:14;101072.40;;;-0.20
70533;BMP180;58088;51.186;17.130;2022-12-17T11:16:02;101077.20;;;-0.26
70533;BMP180;58088;51.186;17.130;2022-12-17T11:18:57;101085.00;;;-0.20
70533;BMP180;58088;51.186;17.130;2022-12-17T11:21:51;101087.20;;;-0.20
70533;BMP180;58088;51.186;17.130;2022-12-17T11:24:43;101089.20;;;-0.10
70533;BMP180;58088;51.186;17.130;2022-12-17T11:27:49;101100.00;;;0.00
70533;BMP180;58088;51.186;17.130;2022-12-17T11:30:51;101097.00;;;-0.10
70533;BMP180;58088;51.186;17.130;2022-12-17T11:34:13;101103.60;;;0.00
70533;BMP180;58088;51.186;17.130;2022-12-17T11:37:13;101100.20;;;0.00
70533;BMP180;58088;51.186;17.130;2022-12-17T11:43:14;101116.60;;;0.00
70533;BMP180;58088;51.186;17.130;2022-12-17T11:49:31;101115.20;;;0.04
70533;BMP180;58088;51.186;17.130;2022-12-17T11:59:23;101140.00;;;-0.06
70533;BMP180;58088;51.186;17.130;2022-12-17T12:02:53;101139.60;;;-0.10
70533;BMP180;58088;51.186;17.130;2022-12-17T12:05:55;101134.00;;;-0.10
70533;BMP180;58088;51.186;17.130;2022-12-17T12:09:03;101140.20;;;-0.08
70533;BMP180;58088;51.186;17.130;2022-12-17T12:16:06;101136.00;;;0.70
70533;BMP180;58088;51.186;17.130;2022-12-17T12:19:17;101138.40;;;0.60
70533;BMP180;58088;51.186;17.130;2022-12-17T12:22:39;101141.20;;;0.60
70533;BMP180;58088;51.186;17.130;2022-12-17T12:29:16;101146.40;;;0.42
70533;BMP180;58088;51.186;17.130;2022-12-17T12:32:23;101146.80;;;0.48
70533;BMP180;58088;51.186;17.130;2022-12-17T12:35:21;101151.20;;;0.40
70533;BMP180;58088;51.186;17.130;2022-12-17T12:38:33;101148.60;;;0.40
70533;BMP180;58088;51.186;17.130;2022-12-17T12:45:44;101157.40;;;0.30
70533;BMP180;58088;51.186;17.130;2022-12-17T12:48:57;101160.80;;;0.20
70533;BMP180;58088;51.186;17.130;2022-12-17T12:51:48;101162.40;;;0.20
70533;BMP180;58088;51.186;17.130;2022-12-17T12:58:04;101172.80;;;0.22
70533;BMP180;58088;51.186;17.130;2022-12-17T13:06:54;101182.20;;;0.20
70533;BMP180;58088;51.186;17.130;2022-12-17T13:09:31;101185.40;;;0.18
70533;BMP180;58088;51.186;17.130;2022-12-17T13:14:46;101199.20;;;0.20
70533;BMP180;58088;51.186;17.130;2022-12-17T13:24:54;101197.20;;;0.10
70533;BMP180;58088;51.186;17.130;2022-12-17T13:41:34;101211.40;;;0.18
70533;BMP180;58088;51.186;17.130;2022-12-17T13:44:17;101219.60;;;0.20
70533;BMP180;58088;51.186;17.130;2022-12-17T13:46:47;101226.40;;;0.20
70533;BMP180;58088;51.186;17.130;2022-12-17T13:49:27;101231.20;;;0.20
70533;BMP180;58088;51.186;17.130;2022-12-17T13:52:13;101241.60;;;0.20
70533;BMP180;58088;51.186;17.130;2022-12-17T13:54:41;101241.00;;;0.20
70533;BMP180;58088;51.186;17.130;2022-12-17T13:57:17;101250.00;;;0.20
70533;BMP180;58088;51.186;17.130;2022-12-17T13:59:57;101255.80;;;0.18
70533;BMP180;58088;51.186;17.130;2022-12-17T14:02:31;101251.20;;;0.00
70533;BMP180;58088;51.186;17.130;2022-12-17T14:05:01;101253.40;;;0.00
70533;BMP180;58088;51.186;17.130;2022-12-17T14:07:29;101252.20;;;-0.10
70533;BMP180;58088;51.186;17.130;2022-12-17T14:09:58;101257.80;;;-0.10
70533;BMP180;58088;51.186;17.130;2022-12-17T14:12:26;101261.00;;;-0.10
70533;BMP180;58088;51.186;17.130;2022-12-17T14:15:06;101263.20;;;-0.10
70533;BMP180;58088;51.186;17.130;2022-12-17T14:17:41;101278.20;;;-0.10
70533;BMP180;58088;51.186;17.130;2022-12-17T14:20:16;101272.40;;;-0.10
70533;BMP180;58088;51.186;17.130;2022-12-17T14:22:47;101276.80;;;-0.20
70533;BMP180;58088;51.186;17.130;2022-12-17T14:25:21;101287.20;;;-0.30
70533;BMP180;58088;51.186;17.130;2022-12-17T14:27:57;101291.20;;;-0.30
70533;BMP180;58088;51.186;17.130;2022-12-17T14:30:36;101296.80;;;-0.30
70533;BMP180;58088;51.186;17.130;2022-12-17T14:33:04;101291.40;;;-0.30
70533;BMP180;58088;51.186;17.130;2022-12-17T14:35:38;101299.80;;;-0.30
70533;BMP180;58088;51.186;17.130;2022-12-17T14:38:04;101309.00;;;-0.40
70533;BMP180;58088;51.186;17.130;2022-12-17T14:40:31;101311.00;;;-0.50
70533;BMP180;58088;51.186;17.130;2022-12-17T14:42:59;101318.00;;;-0.50
70533;BMP180;58088;51.186;17.130;2022-12-17T14:45:27;101315.40;;;-0.50
70533;BMP180;58088;51.186;17.130;2022-12-17T14:47:58;101325.80;;;-0.50
70533;BMP180;58088;51.186;17.130;2022-12-17T14:50:32;101323.20;;;-0.48
70533;BMP180;58088;51.186;17.130;2022-12-17T14:53:23;101332.20;;;-0.48
70533;BMP180;58088;51.186;17.130;2022-12-17T14:55:55;101342.80;;;-0.48
70533;BMP180;58088;51.186;17.130;2022-12-17T14:58:25;101343.20;;;-0.50
70533;BMP180;58088;51.186;17.130;2022-12-17T15:03:26;101343.40;;;-0.40
70533;BMP180;58088;51.186;17.130;2022-12-17T15:06:00;101344.60;;;-0.50
70533;BMP180;58088;51.186;17.130;2022-12-17T15:08:42;101345.20;;;-0.50
70533;BMP180;58088;51.186;17.130;2022-12-17T15:11:16;101350.60;;;-0.50
70533;BMP180;58088;51.186;17.130;2022-12-17T15:13:43;101353.80;;;-0.50
70533;BMP180;58088;51.186;17.130;2022-12-17T15:16:10;101362.00;;;-0.50
70533;BMP180;58088;51.186;17.130;2022-12-17T15:18:36;101362.40;;;-0.50
70533;BMP180;58088;51.186;17.130;2022-12-17T15:21:03;101359.40;;;-0.50
70533;BMP180;58088;51.186;17.130;2022-12-17T15:23:30;101365.20;;;-0.50
70533;BMP180;58088;51.186;17.130;2022-12-17T15:25:57;101368.20;;;-0.60
70533;BMP180;58088;51.186;17.130;2022-12-17T15:28:23;101366.20;;;-0.60
70533;BMP180;58088;51.186;17.130;2022-12-17T15:30:51;101360.00;;;-0.70
70533;BMP180;58088;51.186;17.130;2022-12-17T15:33:17;101366.40;;;-0.70
70533;BMP180;58088;51.186;17.130;2022-12-17T15:35:44;101372.20;;;-0.74
70533;BMP180;58088;51.186;17.130;2022-12-17T15:38:11;101368.20;;;-0.80
70533;BMP180;58088;51.186;17.130;2022-12-17T15:40:39;101381.40;;;-0.80
70533;BMP180;58088;51.186;17.130;2022-12-17T15:43:10;101386.60;;;-0.80
70533;BMP180;58088;51.186;17.130;2022-12-17T15:45:42;101390.00;;;-0.80
70533;BMP180;58088;51.186;17.130;2022-12-17T15:48:11;101393.80;;;-0.80
70533;BMP180;58088;51.186;17.130;2022-12-17T15:50:38;101392.00;;;-0.80
70533;BMP180;58088;51.186;17.130;2022-12-17T15:53:05;101394.20;;;-0.84
70533;BMP180;58088;51.186;17.130;2022-12-17T15:55:32;101389.80;;;-0.84
70533;BMP180;58088;51.186;17.130;2022-12-17T15:57:58;101397.00;;;-0.80
70533;BMP180;58088;51.186;17.130;2022-12-17T16:00:24;101400.40;;;-0.80
70533;BMP180;58088;51.186;17.130;2022-12-17T16:02:51;101404.40;;;-0.88
70533;BMP180;58088;51.186;17.130;2022-12-17T16:05:18;101405.60;;;-0.90
70533;BMP180;58088;51.186;17.130;2022-12-17T16:07:48;101408.60;;;-0.90
70533;BMP180;58088;51.186;17.130;2022-12-17T16:10:15;101407.00;;;-0.90
70533;BMP180;58088;51.186;17.130;2022-12-17T16:12:42;101408.40;;;-0.90
70533;BMP180;58088;51.186;17.130;2022-12-17T16:15:10;101411.40;;;-0.90
70533;BMP180;58088;51.186;17.130;2022-12-17T16:17:37;101416.20;;;-0.90
70533;BMP180;58088;51.186;17.130;2022-12-17T16:20:05;101420.00;;;-0.96
70533;BMP180;58088;51.186;17.130;2022-12-17T16:22:34;101421.80;;;-0.98
70533;BMP180;58088;51.186;17.130;2022-12-17T16:25:00;101427.00;;;-1.00
70533;BMP180;58088;51.186;17.130;2022-12-17T16:27:27;101428.60;;;-1.00
70533;BMP180;58088;51.186;17.130;2022-12-17T16:29:53;101427.80;;;-1.00
70533;BMP180;58088;51.186;17.130;2022-12-17T16:32:19;101427.80;;;-1.00
70533;BMP180;58088;51.186;17.130;2022-12-17T16:34:46;101437.20;;;-1.00
70533;BMP180;58088;51.186;17.130;2022-12-17T16:37:13;101438.80;;;-1.00
70533;BMP180;58088;51.186;17.130;2022-12-17T16:39:39;101444.40;;;-1.00
70533;BMP180;58088;51.186;17.130;2022-12-17T16:42:06;101449.80;;;-1.00